Time;durP1;ratioP1;P1;durP2;ratioP2;P2;SDS_P1;SDS_P2;PMS_P1;PMS_P2;Temp;Humidity;BMP_temperature;BMP_pressure;BME280_temperature;BME280_humidity;BME280_pressure;Samples;Min_cycle;Max_cycle;Signal;HPM_P1;HPM_P2
2021/12/16 00:01:47;;;;;;;474.03;181.87;;;5.40;99.90;;;;;;10321468;28;20584;-87
2021/12/16 00:33:39;;;;;;;629.90;241.73;;;5.40;99.90;;;;;;10314873;28;20031;-89
2021/12/16 00:38:42;;;;;;;525.93;213.73;;;5.40;99.90;;;;;;10292234;28;20027;-89
2021/12/16 00:43:51;;;;;;;524.27;210.20;;;5.40;99.90;;;;;;10302430;28;20044;-89
2021/12/16 00:59:10;;;;;;;438.30;178.45;;;5.40;99.90;;;;;;10294616;28;20060;-88
2021/12/16 01:57:32;;;;;;;634.37;226.33;;;5.40;99.90;;;;;;10288094;28;20031;-87
2021/12/16 02:02:48;;;;;;;605.50;217.70;;;5.40;99.90;;;;;;10311469;28;20034;-88
2021/12/16 02:08:15;;;;;;;591.10;210.47;;;5.40;99.90;;;;;;10327251;28;20128;-88
2021/12/16 02:13:46;;;;;;;555.03;209.57;;;5.40;99.90;;;;;;10324945;28;20046;-88
2021/12/16 02:29:54;;;;;;;611.70;217.53;;;5.40;99.90;;;;;;10325323;28;20781;-89
2021/12/16 02:40:02;;;;;;;667.77;234.13;;;5.40;99.90;;;;;;10322315;28;20069;-87
2021/12/16 02:50:09;;;;;;;725.40;234.10;;;5.40;99.90;;;;;;10295252;28;20394;-88
2021/12/16 02:55:11;;;;;;;690.90;234.10;;;5.40;99.90;;;;;;10295164;28;20027;-89
2021/12/16 03:00:15;;;;;;;555.80;191.83;;;5.40;99.90;;;;;;10312311;28;20027;-88
2021/12/16 03:05:18;;;;;;;605.07;195.83;;;5.40;99.90;;;;;;10331249;28;20887;-88
2021/12/16 03:20:57;;;;;;;624.00;191.07;;;5.40;99.90;;;;;;10332562;28;20539;-88
2021/12/16 03:31:20;;;;;;;489.90;148.33;;;5.40;99.90;;;;;;10305486;28;20191;-88
2021/12/16 03:41:25;;;;;;;490.90;150.10;;;5.40;99.90;;;;;;10320704;28;20114;-89
2021/12/16 03:46:32;;;;;;;568.13;168.13;;;5.50;99.90;;;;;;10301153;28;20026;-88
2021/12/16 03:51:43;;;;;;;654.33;190.20;;;5.50;99.90;;;;;;10315301;28;20025;-88
2021/12/16 03:56:44;;;;;;;653.77;200.90;;;5.50;99.90;;;;;;10282359;28;20587;-89
2021/12/16 04:01:45;;;;;;;796.70;228.70;;;5.50;99.90;;;;;;10289973;28;20034;-89
2021/12/16 04:06:46;;;;;;;605.30;175.70;;;5.50;99.90;;;;;;10305650;28;20026;-86
2021/12/16 04:11:56;;;;;;;576.70;178.30;;;5.50;99.90;;;;;;10282710;28;20022;-86
2021/12/16 04:16:57;;;;;;;549.87;173.37;;;5.60;99.90;;;;;;10326749;28;20387;-87
2021/12/16 04:22:11;;;;;;;532.70;161.70;;;5.50;99.90;;;;;;10308715;28;20050;-86
2021/12/16 04:27:13;;;;;;;453.00;149.83;;;5.60;99.90;;;;;;10303334;28;20037;-88
2021/12/16 04:32:15;;;;;;;412.30;131.57;;;5.60;99.90;;;;;;10328935;28;20074;-85
2021/12/16 04:37:16;;;;;;;371.97;124.83;;;5.60;99.90;;;;;;10315123;28;20018;-88
2021/12/16 04:42:19;;;;;;;365.20;122.40;;;5.60;99.90;;;;;;10312810;28;20092;-83
2021/12/16 04:47:21;;;;;;;359.43;125.63;;;5.60;99.90;;;;;;10281580;28;20031;-85
2021/12/16 04:52:22;;;;;;;417.37;155.67;;;5.60;99.90;;;;;;10292022;28;20502;-87
2021/12/16 04:57:23;;;;;;;367.13;128.13;;;5.60;99.90;;;;;;10303119;28;20041;-86
2021/12/16 05:02:26;;;;;;;426.80;175.83;;;5.60;99.90;;;;;;10303757;28;20565;-86
2021/12/16 05:07:26;;;;;;;422.40;162.07;;;5.70;99.90;;;;;;10330596;28;20385;-85
2021/12/16 05:12:31;;;;;;;476.63;195.03;;;5.70;99.90;;;;;;10322751;28;20029;-86
2021/12/16 05:17:39;;;;;;;436.17;182.70;;;5.70;99.90;;;;;;10304307;28;20662;-87
2021/12/16 05:28:02;;;;;;;368.70;128.67;;;5.70;99.90;;;;;;10265640;28;20031;-87
2021/12/16 05:33:04;;;;;;;334.60;119.57;;;5.70;99.90;;;;;;10254370;28;20035;-86
2021/12/16 05:38:05;;;;;;;401.23;141.90;;;5.70;99.90;;;;;;10278937;28;20389;-85
2021/12/16 05:43:09;;;;;;;351.43;139.53;;;5.70;99.90;;;;;;10287142;28;20064;-86
2021/12/16 05:48:12;;;;;;;333.60;129.80;;;5.70;99.90;;;;;;10232445;29;20387;-87
2021/12/16 05:53:14;;;;;;;342.70;135.43;;;5.70;99.90;;;;;;10231990;28;20037;-85
2021/12/16 05:58:18;;;;;;;367.67;150.27;;;5.70;99.90;;;;;;10256174;28;20024;-85
2021/12/16 06:03:21;;;;;;;293.47;126.40;;;5.70;99.90;;;;;;10246140;29;20035;-85
2021/12/16 06:08:22;;;;;;;286.40;124.87;;;5.60;99.90;;;;;;10245224;29;20098;-85
2021/12/16 06:13:27;;;;;;;268.47;114.03;;;5.60;99.90;;;;;;10245047;29;20114;-86
2021/12/16 06:29:07;;;;;;;330.07;148.67;;;5.50;99.90;;;;;;10287471;28;20047;-85
2021/12/16 06:34:09;;;;;;;420.80;192.30;;;5.50;99.90;;;;;;10287225;28;20455;-87
2021/12/16 06:39:09;;;;;;;477.57;203.60;;;5.50;99.90;;;;;;10287904;28;20023;-84
2021/12/16 06:44:20;;;;;;;496.83;205.90;;;5.50;99.90;;;;;;10286715;28;20030;-85
2021/12/16 06:49:22;;;;;;;417.60;172.80;;;5.40;99.90;;;;;;10287206;28;20085;-86
2021/12/16 06:54:34;;;;;;;379.80;161.90;;;5.40;99.90;;;;;;10269511;28;20481;-84
2021/12/16 06:59:40;;;;;;;378.73;165.93;;;5.40;99.90;;;;;;10287134;28;20409;-85
2021/12/16 07:04:43;;;;;;;363.20;170.48;;;5.40;99.90;;;;;;10286914;28;20130;-85
2021/12/16 07:09:44;;;;;;;360.80;162.60;;;5.40;99.90;;;;;;10286101;28;20717;-84
2021/12/16 07:14:45;;;;;;;397.17;171.43;;;5.40;99.90;;;;;;10268553;28;20118;-86
2021/12/16 07:19:46;;;;;;;324.17;149.17;;;5.40;99.90;;;;;;10285918;28;20047;-85
2021/12/16 07:24:47;;;;;;;349.43;171.97;;;5.40;99.90;;;;;;10285793;28;20043;-85
2021/12/16 07:29:48;;;;;;;324.90;151.83;;;5.50;99.90;;;;;;10285958;28;20466;-86
2021/12/16 07:34:48;;;;;;;348.47;167.23;;;5.50;99.90;;;;;;10292408;28;20375;-85
2021/12/16 07:39:51;;;;;;;273.07;131.20;;;5.50;99.90;;;;;;10293046;28;20049;-86
2021/12/16 07:44:52;;;;;;;308.10;140.87;;;5.50;99.90;;;;;;10275800;28;20042;-85
2021/12/16 07:49:53;;;;;;;235.13;114.40;;;5.50;99.90;;;;;;10292790;28;20023;-84
2021/12/16 07:54:54;;;;;;;248.97;112.67;;;5.60;99.90;;;;;;10292372;28;20089;-85
2021/12/16 07:59:54;;;;;;;234.30;112.13;;;5.60;99.90;;;;;;10293169;28;20419;-84
2021/12/16 08:04:55;;;;;;;205.40;95.70;;;5.60;99.90;;;;;;10291942;28;20121;-85
2021/12/16 08:09:56;;;;;;;202.33;100.40;;;5.60;99.90;;;;;;10292103;28;20649;-85
2021/12/16 08:14:56;;;;;;;229.80;106.73;;;5.60;99.90;;;;;;10291685;28;20398;-84
2021/12/16 08:19:57;;;;;;;200.33;105.07;;;5.70;99.90;;;;;;10291612;28;20553;-85
2021/12/16 08:24:58;;;;;;;209.70;108.77;;;5.70;99.90;;;;;;10291399;28;20074;-84
2021/12/16 08:29:59;;;;;;;211.10;113.20;;;5.80;99.90;;;;;;10291966;28;20526;-85
2021/12/16 08:35:01;;;;;;;239.30;127.67;;;5.90;99.90;;;;;;10291346;28;20030;-85
2021/12/16 08:40:05;;;;;;;255.60;128.00;;;5.90;99.90;;;;;;10290819;28;20027;-84
2021/12/16 08:45:10;;;;;;;224.70;118.93;;;6.00;99.90;;;;;;10290066;28;20034;-85
2021/12/16 08:50:14;;;;;;;201.80;99.73;;;6.00;99.90;;;;;;10290593;28;20022;-84
2021/12/16 08:55:16;;;;;;;208.10;105.00;;;6.10;99.90;;;;;;10290051;28;20450;-86
2021/12/16 09:00:30;;;;;;;243.10;125.67;;;6.10;99.90;;;;;;10290189;28;20034;-84
2021/12/16 09:05:32;;;;;;;233.40;120.67;;;6.10;99.90;;;;;;10289713;28;20041;-85
2021/12/16 09:10:35;;;;;;;230.13;120.43;;;6.10;99.90;;;;;;10289988;28;20034;-85
2021/12/16 09:15:47;;;;;;;251.40;119.10;;;6.10;99.90;;;;;;10289217;28;20327;-86
2021/12/16 09:20:48;;;;;;;237.97;118.10;;;6.10;99.90;;;;;;10289794;28;20054;-84
2021/12/16 09:25:50;;;;;;;268.33;124.67;;;6.10;99.90;;;;;;10289095;28;20039;-85
2021/12/16 09:30:50;;;;;;;277.77;126.97;;;6.10;99.90;;;;;;10289383;28;20031;-84
2021/12/16 09:35:56;;;;;;;292.03;135.50;;;6.10;99.90;;;;;;10287617;28;20034;-86
2021/12/16 09:40:57;;;;;;;300.47;139.03;;;6.10;99.90;;;;;;10289277;28;20037;-85
2021/12/16 09:46:02;;;;;;;316.70;133.10;;;6.10;99.90;;;;;;10271327;28;20037;-85
2021/12/16 09:51:05;;;;;;;284.87;123.67;;;6.20;99.90;;;;;;10287975;28;20023;-85
2021/12/16 09:56:09;;;;;;;237.20;106.07;;;6.20;99.90;;;;;;10287157;28;20023;-85
2021/12/16 10:01:12;;;;;;;259.30;112.77;;;6.10;99.90;;;;;;10270345;28;20027;-86
2021/12/16 10:06:14;;;;;;;345.67;136.07;;;6.20;99.90;;;;;;10288555;28;20049;-84
2021/12/16 10:11:16;;;;;;;260.20;112.83;;;6.20;99.90;;;;;;10287080;28;20023;-86
2021/12/16 10:21:37;;;;;;;231.63;99.57;;;6.20;99.90;;;;;;10287551;28;20474;-85
2021/12/16 10:26:37;;;;;;;227.73;92.57;;;6.20;99.90;;;;;;10287999;28;20084;-86
2021/12/16 10:31:38;;;;;;;295.80;116.67;;;6.20;99.90;;;;;;10287537;28;20542;-87
2021/12/16 10:36:45;;;;;;;204.33;85.67;;;6.30;99.90;;;;;;10269969;28;20031;-87
2021/12/16 10:41:55;;;;;;;220.73;96.27;;;6.30;99.90;;;;;;10287699;28;20066;-85
2021/12/16 10:47:05;;;;;;;286.60;121.07;;;6.30;99.90;;;;;;10269914;28;20034;-86
2021/12/16 10:52:10;;;;;;;315.40;129.93;;;6.30;99.90;;;;;;10269466;28;20030;-85
2021/12/16 10:57:12;;;;;;;175.90;75.40;;;6.40;99.90;;;;;;10287933;28;20066;-86
2021/12/16 11:02:18;;;;;;;276.63;116.67;;;6.40;99.90;;;;;;10286875;28;20026;-85
2021/12/16 11:07:46;;;;;;;170.35;72.32;;;6.40;99.90;;;;;;10290565;28;20031;-86
2021/12/16 11:12:52;;;;;;;150.90;66.93;;;6.40;99.90;;;;;;10294723;28;20542;-85
2021/12/16 11:17:58;;;;;;;150.37;68.47;;;6.50;99.90;;;;;;10294701;28;20050;-87
2021/12/16 11:23:03;;;;;;;171.45;74.88;;;6.60;99.90;;;;;;10293712;28;20398;-86
2021/12/16 11:28:12;;;;;;;187.33;83.00;;;6.60;99.90;;;;;;10301662;28;20019;-86
2021/12/16 11:33:23;;;;;;;232.97;97.70;;;6.60;99.90;;;;;;10276643;28;20019;-86
2021/12/16 11:38:28;;;;;;;141.13;56.13;;;6.60;99.90;;;;;;10294520;28;20035;-87
2021/12/16 11:43:47;;;;;;;236.25;98.65;;;6.60;99.90;;;;;;10293634;28;20486;-88
2021/12/16 11:48:52;;;;;;;210.53;99.90;;;6.60;99.90;;;;;;10293163;28;20029;-86
2021/12/16 11:53:57;;;;;;;161.10;67.77;;;6.50;99.90;;;;;;10292897;28;20019;-86
2021/12/16 11:58:58;;;;;;;139.90;59.13;;;6.60;99.90;;;;;;10292432;28;20042;-87
2021/12/16 12:04:06;;;;;;;156.57;64.87;;;6.60;99.90;;;;;;10275792;28;20035;-86
2021/12/16 12:09:08;;;;;;;155.30;67.53;;;6.60;99.90;;;;;;10293071;28;20034;-86
2021/12/16 12:14:17;;;;;;;155.80;63.03;;;6.60;99.90;;;;;;10292296;28;20038;-87
2021/12/16 12:19:23;;;;;;;156.10;70.97;;;6.60;99.90;;;;;;10291173;28;20057;-86
2021/12/16 12:24:32;;;;;;;179.07;78.20;;;6.60;99.90;;;;;;10274625;28;20506;-87
2021/12/16 12:29:37;;;;;;;150.93;65.47;;;6.50;99.90;;;;;;10274065;28;20037;-88
2021/12/16 12:34:43;;;;;;;149.13;62.70;;;6.50;99.90;;;;;;10292386;28;20026;-86
2021/12/16 12:39:49;;;;;;;145.55;63.10;;;6.50;99.90;;;;;;10291170;28;20030;-86
2021/12/16 12:44:50;;;;;;;160.23;70.27;;;6.60;99.90;;;;;;10291024;28;20114;-87
2021/12/16 12:49:51;;;;;;;144.10;58.73;;;6.60;99.90;;;;;;10290652;28;20106;-86
2021/12/16 12:55:03;;;;;;;125.50;48.17;;;6.50;99.90;;;;;;10280375;28;20467;-86
2021/12/16 13:00:26;;;;;;;113.93;47.83;;;6.50;99.90;;;;;;10317312;28;20023;-88
2021/12/16 13:05:27;;;;;;;102.33;39.83;;;6.60;99.90;;;;;;10306466;28;20042;-87
2021/12/16 13:10:42;;;;;;;93.17;39.10;;;6.50;99.90;;;;;;10315405;28;20509;-86
2021/12/16 13:15:54;;;;;;;107.23;42.77;;;6.50;99.90;;;;;;10313210;28;20069;-89
2021/12/16 13:26:30;;;;;;;262.93;115.67;;;6.50;99.90;;;;;;10324303;28;20046;-86
2021/12/16 13:31:38;;;;;;;166.50;78.20;;;6.50;99.90;;;;;;10328171;28;20023;-86
2021/12/16 13:36:50;;;;;;;182.30;84.33;;;6.50;99.90;;;;;;10313195;28;20014;-90
2021/12/16 13:41:58;;;;;;;171.37;68.37;;;6.50;99.90;;;;;;10272961;28;20030;-88
2021/12/16 13:47:09;;;;;;;268.03;108.23;;;6.60;99.90;;;;;;10293365;28;20030;-91
2021/12/16 14:08:54;;;;;;;142.83;57.03;;;6.60;99.90;;;;;;10300742;28;20026;-88
2021/12/16 14:14:44;;;;;;;122.83;48.43;;;6.60;99.90;;;;;;10328207;28;20041;-88
2021/12/16 14:31:48;;;;;;;84.97;31.93;;;6.60;99.90;;;;;;10327827;28;20399;-89
2021/12/16 14:46:46;;;;;;;67.57;25.23;;;6.60;99.90;;;;;;10309196;28;20669;-89
2021/12/16 14:51:57;;;;;;;65.27;23.60;;;6.60;99.90;;;;;;10299442;28;20034;-87
2021/12/16 14:57:05;;;;;;;115.50;50.07;;;6.50;99.90;;;;;;10316800;28;20041;-90
2021/12/16 15:02:11;;;;;;;100.50;38.80;;;6.60;99.90;;;;;;10312130;28;20039;-88
2021/12/16 15:07:17;;;;;;;52.53;21.02;;;6.60;99.90;;;;;;10330050;28;20045;-88
2021/12/16 15:12:28;;;;;;;;;;;6.50;99.90;;;;;;10334595;28;20073;-88
2021/12/16 15:38:49;;;;;;;38.03;14.73;;;6.50;99.90;;;;;;10331594;28;20722;-88
2021/12/16 15:43:55;;;;;;;52.87;21.27;;;6.50;99.90;;;;;;10324679;28;20022;-89
2021/12/16 15:48:56;;;;;;;;;;;6.50;99.90;;;;;;10283479;28;20034;-88
2021/12/16 15:54:00;;;;;;;36.87;13.50;;;6.50;99.90;;;;;;10304072;28;19910;-90
2021/12/16 15:59:04;;;;;;;30.17;13.53;;;6.40;99.90;;;;;;10313548;28;20035;-89
2021/12/16 16:04:11;;;;;;;29.80;12.27;;;6.40;99.90;;;;;;10301640;28;20077;-90
2021/12/16 16:09:12;;;;;;;30.83;12.20;;;6.50;99.90;;;;;;10291961;28;20351;-90
2021/12/16 16:14:16;;;;;;;24.53;10.47;;;6.50;99.90;;;;;;10310972;28;20027;-89
2021/12/16 16:19:28;;;;;;;23.93;9.33;;;6.50;99.90;;;;;;10331678;28;20575;-90
2021/12/16 16:24:33;;;;;;;22.63;8.90;;;6.50;99.90;;;;;;10321363;28;20081;-88
2021/12/16 16:29:36;;;;;;;25.50;10.45;;;6.50;99.90;;;;;;10313673;28;20026;-87
2021/12/16 16:34:44;;;;;;;23.53;10.50;;;6.40;99.90;;;;;;10322431;28;20377;-86
2021/12/16 16:39:57;;;;;;;27.83;11.30;;;6.40;99.90;;;;;;10329420;28;20105;-85
2021/12/16 16:44:59;;;;;;;22.33;9.10;;;6.40;99.90;;;;;;10320940;28;20031;-88
2021/12/16 16:50:05;;;;;;;19.07;8.30;;;6.40;99.90;;;;;;10307555;28;20039;-87
2021/12/16 16:55:11;;;;;;;22.70;10.23;;;6.40;99.90;;;;;;10286275;28;20749;-85
2021/12/16 17:00:23;;;;;;;23.47;9.73;;;6.40;99.90;;;;;;10306541;28;20065;-88
2021/12/16 17:05:32;;;;;;;26.33;10.63;;;6.30;99.90;;;;;;10306866;28;20448;-86
2021/12/16 17:10:52;;;;;;;23.83;10.80;;;6.30;99.90;;;;;;10306250;28;20032;-85
2021/12/16 17:21:10;;;;;;;29.80;12.00;;;6.30;99.90;;;;;;10305316;28;20055;-89
2021/12/16 17:32:18;;;;;;;23.60;10.23;;;6.20;99.90;;;;;;10304016;28;20422;-86
2021/12/16 17:37:23;;;;;;;16.47;7.80;;;6.10;99.90;;;;;;10311386;28;20495;-86
2021/12/16 17:42:30;;;;;;;31.35;13.35;;;6.20;99.90;;;;;;10310703;28;20026;-87
2021/12/16 17:47:42;;;;;;;32.60;14.13;;;6.10;99.90;;;;;;10318027;28;20030;-86
2021/12/16 17:59:17;;;;;;;16.70;8.40;;;6.10;99.90;;;;;;10310527;28;20474;-88
2021/12/16 18:04:21;;;;;;;19.20;9.43;;;6.00;99.90;;;;;;10319084;28;20030;-92
2021/12/16 18:09:32;;;;;;;21.77;9.77;;;6.00;99.90;;;;;;10302856;28;20022;-88
2021/12/16 18:14:45;;;;;;;17.33;8.17;;;6.00;99.90;;;;;;10307502;28;20022;-90
2021/12/16 18:20:01;;;;;;;14.40;7.37;;;5.90;99.90;;;;;;10310209;28;20739;-85
2021/12/16 18:25:40;;;;;;;14.15;6.63;;;5.80;99.90;;;;;;10288159;28;20051;-87
2021/12/16 18:48:23;;;;;;;24.63;12.47;;;5.40;99.90;;;;;;11002449;23;19926;-86
2021/12/16 18:58:49;;;;;;;25.07;12.47;;;5.40;99.90;;;;;;10315437;28;20471;-93
2021/12/16 19:04:14;;;;;;;21.80;9.93;;;5.40;99.90;;;;;;10300883;28;20050;-85
2021/12/16 19:09:17;;;;;;;22.93;10.43;;;5.30;99.90;;;;;;10286500;28;20033;-85
2021/12/16 19:14:21;;;;;;;26.10;10.50;;;5.30;99.90;;;;;;10302477;28;20064;-85
2021/12/16 19:19:40;;;;;;;26.93;12.40;;;5.20;99.90;;;;;;10288486;28;20022;-81
2021/12/16 19:30:40;;;;;;;29.33;12.52;;;5.30;99.90;;;;;;10292746;28;20466;-86
2021/12/16 19:35:42;;;;;;;30.07;14.03;;;5.30;99.90;;;;;;10281672;28;20014;-84
2021/12/16 19:40:43;;;;;;;28.93;13.63;;;5.30;99.90;;;;;;10297339;28;20050;-84
2021/12/16 19:45:46;;;;;;;24.73;10.77;;;5.30;99.90;;;;;;10290388;28;20039;-86
2021/12/16 19:50:50;;;;;;;23.63;11.67;;;5.30;99.90;;;;;;10264846;28;20055;-87
2021/12/16 19:55:52;;;;;;;22.57;9.67;;;5.30;99.90;;;;;;10273489;28;20081;-89
2021/12/16 20:00:55;;;;;;;25.53;10.67;;;5.30;99.90;;;;;;10273726;28;20367;-86
2021/12/16 20:05:58;;;;;;;21.53;10.67;;;5.30;99.90;;;;;;10267064;28;20054;-87
2021/12/16 20:11:01;;;;;;;28.47;12.60;;;5.20;99.90;;;;;;10310941;28;20394;-87
2021/12/16 20:16:12;;;;;;;29.17;13.43;;;5.30;99.90;;;;;;10281243;28;20034;-86
2021/12/16 20:21:37;;;;;;;19.47;9.47;;;5.20;99.90;;;;;;10288117;28;20058;-90
2021/12/16 20:26:47;;;;;;;26.57;11.83;;;5.20;99.90;;;;;;10247372;28;20118;-87
2021/12/16 20:31:56;;;;;;;43.07;16.33;;;5.30;99.90;;;;;;10253185;28;20364;-88
2021/12/16 20:37:00;;;;;;;42.97;19.30;;;5.20;99.90;;;;;;10272094;28;20394;-86
2021/12/16 20:42:06;;;;;;;26.07;11.50;;;5.20;99.90;;;;;;10273020;28;20038;-87
2021/12/16 20:47:12;;;;;;;68.60;30.07;;;5.20;99.90;;;;;;10261033;28;20147;-89
2021/12/16 20:52:25;;;;;;;33.03;15.77;;;5.20;99.90;;;;;;10282930;28;20053;-86
2021/12/16 20:57:26;;;;;;;47.20;21.83;;;5.20;99.90;;;;;;10296178;28;20029;-88
2021/12/16 21:02:31;;;;;;;106.07;42.57;;;5.20;99.90;;;;;;10290335;28;20035;-86
2021/12/16 21:07:32;;;;;;;54.97;22.38;;;5.20;99.90;;;;;;10312121;28;20125;-86
2021/12/16 21:12:35;;;;;;;54.70;22.97;;;5.20;99.90;;;;;;10270563;28;20377;-87
2021/12/16 21:17:36;;;;;;;39.80;18.17;;;5.20;99.90;;;;;;10260626;28;20682;-85
2021/12/16 21:22:37;;;;;;;34.23;15.47;;;5.20;99.90;;;;;;10256003;28;20026;-89
2021/12/16 21:27:41;;;;;;;36.93;18.50;;;5.20;99.90;;;;;;10235128;28;20038;-85
2021/12/16 21:32:43;;;;;;;39.33;18.90;;;5.20;99.90;;;;;;10250761;28;20031;-86
2021/12/16 21:37:45;;;;;;;76.53;31.10;;;5.20;99.90;;;;;;10280677;28;20035;-88
2021/12/16 21:42:46;;;;;;;43.43;19.43;;;5.20;99.90;;;;;;10248819;29;20124;-87
2021/12/16 21:47:48;;;;;;;30.77;15.27;;;5.10;99.90;;;;;;10295860;28;20081;-88
2021/12/16 21:52:50;;;;;;;43.43;19.67;;;5.20;99.90;;;;;;10288217;28;20058;-86
2021/12/16 21:57:54;;;;;;;33.53;14.60;;;5.10;99.90;;;;;;10303172;28;20027;-87
2021/12/16 22:02:57;;;;;;;33.23;15.20;;;5.10;99.90;;;;;;10270258;28;20045;-89
2021/12/16 22:07:58;;;;;;;33.13;14.87;;;5.10;99.90;;;;;;10288447;28;20113;-87
2021/12/16 22:12:59;;;;;;;34.67;15.70;;;5.10;99.90;;;;;;10287764;28;20053;-86
2021/12/16 22:18:05;;;;;;;30.57;15.47;;;5.10;99.90;;;;;;10297072;28;20039;-86
2021/12/16 22:23:08;;;;;;;;;;;5.10;99.90;;;;;;10301238;28;20466;-85
2021/12/16 22:28:18;;;;;;;23.50;10.63;;;5.10;99.90;;;;;;10284534;28;20008;-85
2021/12/16 22:33:20;;;;;;;25.40;11.27;;;5.10;99.90;;;;;;10312652;28;20084;-85
2021/12/16 22:38:23;;;;;;;31.03;11.90;;;5.00;99.90;;;;;;10320042;28;20027;-85
2021/12/16 22:43:25;;;;;;;22.47;10.57;;;5.00;99.90;;;;;;10269395;28;20045;-87
2021/12/16 22:48:29;;;;;;;28.27;10.77;;;5.00;99.90;;;;;;10312609;28;20506;-85
2021/12/16 22:53:30;;;;;;;26.27;10.03;;;5.00;99.90;;;;;;10301572;28;20035;-86
2021/12/16 22:58:31;;;;;;;22.27;9.00;;;5.00;99.90;;;;;;10286540;28;20045;-88
2021/12/16 23:03:33;;;;;;;29.63;10.03;;;5.00;99.90;;;;;;10299113;28;20082;-86
2021/12/16 23:08:34;;;;;;;26.20;11.03;;;5.00;99.90;;;;;;10306658;28;20031;-87
2021/12/16 23:13:36;;;;;;;25.90;9.63;;;5.00;99.90;;;;;;10293678;28;20038;-86
2021/12/16 23:24:00;;;;;;;26.63;9.13;;;5.00;99.90;;;;;;10320976;28;20105;-86
2021/12/16 23:29:01;;;;;;;24.57;8.93;;;5.00;99.90;;;;;;10285165;28;20034;-86
2021/12/16 23:34:03;;;;;;;20.93;8.63;;;4.90;99.90;;;;;;10293186;28;20150;-88
2021/12/16 23:39:08;;;;;;;25.50;8.90;;;4.90;99.90;;;;;;10278542;28;20031;-86
2021/12/16 23:54:31;;;;;;;27.07;8.63;;;4.90;99.90;;;;;;10292714;28;20042;-88
2021/12/16 23:59:34;;;;;;;25.73;9.13;;;4.90;99.90;;;;;;10292424;28;20030;-84
